Obelix — 7JAX — position and weather

sailwx.info

Track history (hours):
 
Tides and Currents Weather Stations Pressure Air Temp Water Temp Dewpoint Dewpoint Depression Visibility Wind Speed Wind Dir Waves Ship Positions

Obelix

Last reported at 2016-Jun-29 07:08 UTC. Time now 2016-Jun-29 23:49 UTC.
Position N 35°05' E 139°39'.

Length 74 m; draft 4 m.

Type: Tanker. MMSI: 432528000.

Date/timePositionNaut miles runAvg speedWind from/ knotsBaromVisibWave heightAir tempDewpointWater temp
2016-Jun-29 07:08N 35°05' E 139°39'712.2
2016-Jun-29 06:32N 35°11' E 139°45'1212.4
2016-Jun-29 05:34N 35°23' E 139°42'1312.6
2016-Jun-29 04:33N 35°31' E 139°54'7 7.4
2016-Jun-29 03:33N 35°32' E 140°03'0 0.0
2016-Jun-29 02:27N 35°32' E 140°03'0 0.0
2016-Jun-29 01:21N 35°32' E 140°03'0 0.0
2016-Jun-29 00:33N 35°32' E 140°03'0 0.2
2016-Jun-28 23:33N 35°32' E 140°03'7 6.9
2016-Jun-28 22:31N 35°29' E 139°55'0 0.0
2016-Jun-28 21:31N 35°29' E 139°55'2 2.5
2016-Jun-28 20:33N 35°28' E 139°52'1111.3
2016-Jun-28 19:33N 35°19' E 139°44'1110.6
2016-Jun-28 18:33N 35°09' E 139°46'1211.8
2016-Jun-28 17:33N 34°57' E 139°43'13 9.1
2016-Jun-28 16:09N 34°53' E 139°57'812.2
2016-Jun-28 15:31N 34°57' E 140°05'2611.9
2016-Jun-28 13:21N 35°14' E 140°30'1011.3
2016-Jun-28 12:29N 35°21' E 140°37'1211.9
2016-Jun-28 11:28N 35°31' E 140°46'1112.4
2016-Jun-28 10:33N 35°40' E 140°55'1611.2
2016-Jun-28 09:05N 35°55' E 140°46'4 6.6
2016-Jun-28 08:33N 35°56' E 140°42'3 2.2
2016-Jun-28 07:12N 35°54' E 140°41'0 0.0
2016-Jun-28 06:18N 35°54' E 140°41'0 0.0
2016-Jun-28 04:16N 35°54' E 140°41'0 0.0
2016-Jun-28 03:30N 35°54' E 140°41'0 0.0
2016-Jun-28 01:27N 35°54' E 140°41'0 0.0
2016-Jun-28 00:10N 35°54' E 140°41'0 0.0
2016-Jun-27 23:33N 35°54' E 140°41'4 4.2
2016-Jun-27 22:33N 35°58' E 140°43'2 2.4
2016-Jun-27 21:33N 36°00' E 140°43'0 0.1
2016-Jun-27 20:33N 36°00' E 140°43'0 0.0
2016-Jun-27 19:33N 36°00' E 140°43'0 0.0
2016-Jun-27 18:33N 36°00' E 140°43'0 0.0
2016-Jun-27 16:15N 36°00' E 140°43'0 0.0
2016-Jun-27 15:27N 36°00' E 140°43'0 0.0
2016-Jun-27 14:27N 36°00' E 140°43'0 0.0
2016-Jun-27 13:27N 36°00' E 140°43'0 0.0
2016-Jun-27 11:27N 36°00' E 140°43'2 2.3
2016-Jun-27 10:30N 35°58' E 140°45'1712.3
2016-Jun-27 09:04N 35°43' E 140°56'2012.3
2016-Jun-27 07:29N 35°26' E 140°44'1112.4
2016-Jun-27 06:33N 35°17' E 140°36'2512.6
2016-Jun-27 04:33N 35°01' E 140°12'1412.2
2016-Jun-27 03:25N 34°53' E 139°58'910.2
2016-Jun-27 02:33N 34°53' E 139°47'1211.7
2016-Jun-27 01:33N 35°04' E 139°44'1212.2
2016-Jun-27 00:33N 35°16' E 139°45'1110.6
2016-Jun-26 23:33N 35°27' E 139°47'6 6.4
2016-Jun-26 22:33N 35°29' E 139°54'0 0.0
2016-Jun-26 21:33N 35°29' E 139°54'0 0.0
2016-Jun-26 20:33N 35°29' E 139°54'0 0.0
2016-Jun-26 19:33N 35°29' E 139°54'0 0.0
2016-Jun-26 18:33N 35°29' E 139°54'0 0.0
2016-Jun-26 17:33N 35°29' E 139°54'0 0.0
2016-Jun-26 16:33N 35°29' E 139°54'0 0.0
2016-Jun-26 15:33N 35°29' E 139°54'0 0.1
2016-Jun-26 14:33N 35°29' E 139°54'0 0.0
2016-Jun-26 13:33N 35°29' E 139°54'0 0.0
2016-Jun-26 12:33N 35°29' E 139°54'0 0.0
2016-Jun-26 11:33N 35°29' E 139°54'0 0.0
2016-Jun-26 10:33N 35°29' E 139°54'0 0.0
2016-Jun-26 09:33N 35°29' E 139°54'0 0.0
2016-Jun-26 08:33N 35°29' E 139°54'0 0.0
2016-Jun-26 07:33N 35°29' E 139°54'0 0.0
2016-Jun-26 06:33N 35°29' E 139°54'0 0.0
2016-Jun-26 05:33N 35°29' E 139°54'0 0.1
2016-Jun-26 04:33N 35°29' E 139°54'3 2.9
2016-Jun-26 03:33N 35°30' E 139°58'4 3.5
2016-Jun-26 02:32N 35°30' E 140°02'0 0.0
2016-Jun-26 01:33N 35°30' E 140°02'0 0.0
2016-Jun-26 00:33N 35°30' E 140°02'0 0.0
2016-Jun-25 23:33N 35°30' E 140°02'0 0.0
2016-Jun-25 22:33N 35°30' E 140°02'2 2.3
2016-Jun-25 21:32N 35°30' E 139°59'4 4.3
2016-Jun-25 20:30N 35°29' E 139°54'0 0.0
2016-Jun-25 19:33N 35°29' E 139°54'0 0.0
2016-Jun-25 18:31N 35°29' E 139°54'0 0.0
2016-Jun-25 17:32N 35°29' E 139°54'0 0.0
2016-Jun-25 16:33N 35°29' E 139°54'0 0.0
2016-Jun-25 15:31N 35°29' E 139°54'0 0.0
2016-Jun-25 14:26N 35°29' E 139°54'0 0.0
2016-Jun-25 13:33N 35°29' E 139°54'0 0.0
2016-Jun-25 12:31N 35°29' E 139°54'0 0.0
2016-Jun-25 11:33N 35°29' E 139°54'0 0.0
2016-Jun-25 10:32N 35°29' E 139°54'0 0.0
2016-Jun-25 09:34N 35°29' E 139°54'0 0.0
2016-Jun-25 08:33N 35°29' E 139°54'0 0.0
2016-Jun-25 07:33N 35°29' E 139°54'0 0.0
2016-Jun-25 06:33N 35°29' E 139°54'0 0.0
2016-Jun-25 05:32N 35°29' E 139°54'0 0.0
2016-Jun-25 04:33N 35°29' E 139°54'0 0.0
2016-Jun-25 03:33N 35°29' E 139°54'0 0.0
2016-Jun-25 02:34N 35°29' E 139°54'0 0.0
2016-Jun-25 01:33N 35°29' E 139°54'0 0.0
2016-Jun-25 00:33N 35°29' E 139°54'0 0.0
2016-Jun-24 23:34N 35°29' E 139°54'1010.1
2016-Jun-24 22:34N 35°22' E 139°45'1212.2
2016-Jun-24 21:33N 35°10' E 139°47'6613.0
2016-Jun-24 16:31N 34°34' E 138°40'  
2016-Jun-19 08:04N 35°07' E 139°42'611.8
2016-Jun-19 07:33N 35°12' E 139°46'  
Track history (hours):
 
Tides and Currents Weather Stations Pressure Air Temp Water Temp Dewpoint Dewpoint Depression Visibility Wind Speed Wind Dir Waves Ship Positions

Obelix

Last reported at 2016-Jun-29 07:08 UTC. Time now 2016-Jun-29 23:49 UTC.
Position N 35°05' E 139°39'.

Length 74 m; draft 4 m.

Type: Tanker. MMSI: 432528000.

Date/timePositionNaut miles runAvg speedWind from/ knotsBaromVisibWave heightAir tempDewpointWater temp
2016-Jun-29 07:08N 35°05' E 139°39'712.2
2016-Jun-29 06:32N 35°11' E 139°45'1212.4
2016-Jun-29 05:34N 35°23' E 139°42'1312.6
2016-Jun-29 04:33N 35°31' E 139°54'7 7.4
2016-Jun-29 03:33N 35°32' E 140°03'0 0.0
2016-Jun-29 02:27N 35°32' E 140°03'0 0.0
2016-Jun-29 01:21N 35°32' E 140°03'0 0.0
2016-Jun-29 00:33N 35°32' E 140°03'0 0.2
2016-Jun-28 23:33N 35°32' E 140°03'7 6.9
2016-Jun-28 22:31N 35°29' E 139°55'0 0.0
2016-Jun-28 21:31N 35°29' E 139°55'2 2.5
2016-Jun-28 20:33N 35°28' E 139°52'1111.3
2016-Jun-28 19:33N 35°19' E 139°44'1110.6
2016-Jun-28 18:33N 35°09' E 139°46'1211.8
2016-Jun-28 17:33N 34°57' E 139°43'13 9.1
2016-Jun-28 16:09N 34°53' E 139°57'812.2
2016-Jun-28 15:31N 34°57' E 140°05'2611.9
2016-Jun-28 13:21N 35°14' E 140°30'1011.3
2016-Jun-28 12:29N 35°21' E 140°37'1211.9
2016-Jun-28 11:28N 35°31' E 140°46'1112.4
2016-Jun-28 10:33N 35°40' E 140°55'1611.2
2016-Jun-28 09:05N 35°55' E 140°46'4 6.6
2016-Jun-28 08:33N 35°56' E 140°42'3 2.2
2016-Jun-28 07:12N 35°54' E 140°41'0 0.0
2016-Jun-28 06:18N 35°54' E 140°41'0 0.0
2016-Jun-28 04:16N 35°54' E 140°41'0 0.0
2016-Jun-28 03:30N 35°54' E 140°41'0 0.0
2016-Jun-28 01:27N 35°54' E 140°41'0 0.0
2016-Jun-28 00:10N 35°54' E 140°41'0 0.0
2016-Jun-27 23:33N 35°54' E 140°41'4 4.2
2016-Jun-27 22:33N 35°58' E 140°43'2 2.4
2016-Jun-27 21:33N 36°00' E 140°43'0 0.1
2016-Jun-27 20:33N 36°00' E 140°43'0 0.0
2016-Jun-27 19:33N 36°00' E 140°43'0 0.0
2016-Jun-27 18:33N 36°00' E 140°43'0 0.0
2016-Jun-27 16:15N 36°00' E 140°43'0 0.0
2016-Jun-27 15:27N 36°00' E 140°43'0 0.0
2016-Jun-27 14:27N 36°00' E 140°43'0 0.0
2016-Jun-27 13:27N 36°00' E 140°43'0 0.0
2016-Jun-27 11:27N 36°00' E 140°43'2 2.3
2016-Jun-27 10:30N 35°58' E 140°45'1712.3
2016-Jun-27 09:04N 35°43' E 140°56'2012.3
2016-Jun-27 07:29N 35°26' E 140°44'1112.4
2016-Jun-27 06:33N 35°17' E 140°36'2512.6
2016-Jun-27 04:33N 35°01' E 140°12'1412.2
2016-Jun-27 03:25N 34°53' E 139°58'910.2
2016-Jun-27 02:33N 34°53' E 139°47'1211.7
2016-Jun-27 01:33N 35°04' E 139°44'1212.2
2016-Jun-27 00:33N 35°16' E 139°45'1110.6
2016-Jun-26 23:33N 35°27' E 139°47'6 6.4
2016-Jun-26 22:33N 35°29' E 139°54'0 0.0
2016-Jun-26 21:33N 35°29' E 139°54'0 0.0
2016-Jun-26 20:33N 35°29' E 139°54'0 0.0
2016-Jun-26 19:33N 35°29' E 139°54'0 0.0
2016-Jun-26 18:33N 35°29' E 139°54'0 0.0
2016-Jun-26 17:33N 35°29' E 139°54'0 0.0
2016-Jun-26 16:33N 35°29' E 139°54'0 0.0
2016-Jun-26 15:33N 35°29' E 139°54'0 0.1
2016-Jun-26 14:33N 35°29' E 139°54'0 0.0
2016-Jun-26 13:33N 35°29' E 139°54'0 0.0
2016-Jun-26 12:33N 35°29' E 139°54'0 0.0
2016-Jun-26 11:33N 35°29' E 139°54'0 0.0
2016-Jun-26 10:33N 35°29' E 139°54'0 0.0
2016-Jun-26 09:33N 35°29' E 139°54'0 0.0
2016-Jun-26 08:33N 35°29' E 139°54'0 0.0
2016-Jun-26 07:33N 35°29' E 139°54'0 0.0
2016-Jun-26 06:33N 35°29' E 139°54'0 0.0
2016-Jun-26 05:33N 35°29' E 139°54'0 0.1
2016-Jun-26 04:33N 35°29' E 139°54'3 2.9
2016-Jun-26 03:33N 35°30' E 139°58'4 3.5
2016-Jun-26 02:32N 35°30' E 140°02'0 0.0
2016-Jun-26 01:33N 35°30' E 140°02'0 0.0
2016-Jun-26 00:33N 35°30' E 140°02'0 0.0
2016-Jun-25 23:33N 35°30' E 140°02'0 0.0
2016-Jun-25 22:33N 35°30' E 140°02'2 2.3
2016-Jun-25 21:32N 35°30' E 139°59'4 4.3
2016-Jun-25 20:30N 35°29' E 139°54'0 0.0
2016-Jun-25 19:33N 35°29' E 139°54'0 0.0
2016-Jun-25 18:31N 35°29' E 139°54'0 0.0
2016-Jun-25 17:32N 35°29' E 139°54'0 0.0
2016-Jun-25 16:33N 35°29' E 139°54'0 0.0
2016-Jun-25 15:31N 35°29' E 139°54'0 0.0
2016-Jun-25 14:26N 35°29' E 139°54'0 0.0
2016-Jun-25 13:33N 35°29' E 139°54'0 0.0
2016-Jun-25 12:31N 35°29' E 139°54'0 0.0
2016-Jun-25 11:33N 35°29' E 139°54'0 0.0
2016-Jun-25 10:32N 35°29' E 139°54'0 0.0
2016-Jun-25 09:34N 35°29' E 139°54'0 0.0
2016-Jun-25 08:33N 35°29' E 139°54'0 0.0
2016-Jun-25 07:33N 35°29' E 139°54'0 0.0
2016-Jun-25 06:33N 35°29' E 139°54'0 0.0
2016-Jun-25 05:32N 35°29' E 139°54'0 0.0
2016-Jun-25 04:33N 35°29' E 139°54'0 0.0
2016-Jun-25 03:33N 35°29' E 139°54'0 0.0
2016-Jun-25 02:34N 35°29' E 139°54'0 0.0
2016-Jun-25 01:33N 35°29' E 139°54'0 0.0
2016-Jun-25 00:33N 35°29' E 139°54'0 0.0
2016-Jun-24 23:34N 35°29' E 139°54'1010.1
2016-Jun-24 22:34N 35°22' E 139°45'1212.2
2016-Jun-24 21:33N 35°10' E 139°47'6613.0
2016-Jun-24 16:31N 34°34' E 138°40'  
2016-Jun-19 08:04N 35°07' E 139°42'611.8
2016-Jun-19 07:33N 35°12' E 139°46'  

Dump ship's entire track history